Oxford, Maine
Current Conditions -  °F | °C
As of 11:15 AM on Thursday 18 Dec 2014 (Local Time) from KLEW Reporting Station
Overcast Overcast  
Wind Chill: 30°   Ceiling: 4400
Heat Index: 37°   Visibility: 10mi
Dew Point: 28°   Wind: 12mph
Humidity: 70%   Direction: 310°NW
Pressure: 29.68"   Gusts: 18mph
Location:  44.13°N, 70.49°W
Report Text: KLEW 181615Z AUTO 31010G16KT 10SM FEW038 BKN044 OVC050 03/M02 A2968 RMK AO1
Loading
Personal Weather Stations






























Interactive Weather Map New forecast layout! Learn more

10-Day Weather Forecast

Advertisements
Track Severe Weather on mobile